sensor_id;sensor_type;location;lat;lon;timestamp;temperature;humidity
66670;DHT22;53568;52.164;4.472;2023-06-22T00:00:53;20.24;74.82
66670;DHT22;53568;52.164;4.472;2023-06-22T00:03:20;20.33;74.56
66670;DHT22;53568;52.164;4.472;2023-06-22T00:05:46;20.43;74.22
66670;DHT22;53568;52.164;4.472;2023-06-22T00:08:12;20.43;73.66
66670;DHT22;53568;52.164;4.472;2023-06-22T00:10:38;20.38;73.97
66670;DHT22;53568;52.164;4.472;2023-06-22T00:13:06;20.25;74.45
66670;DHT22;53568;52.164;4.472;2023-06-22T00:15:32;20.22;74.65
66670;DHT22;53568;52.164;4.472;2023-06-22T00:17:58;20.32;74.51
66670;DHT22;53568;52.164;4.472;2023-06-22T00:20:25;20.39;74.22
66670;DHT22;53568;52.164;4.472;2023-06-22T00:22:56;20.43;74.03
66670;DHT22;53568;52.164;4.472;2023-06-22T00:25:23;20.46;74.06
66670;DHT22;53568;52.164;4.472;2023-06-22T00:27:48;20.51;73.73
66670;DHT22;53568;52.164;4.472;2023-06-22T00:30:16;20.59;73.44
66670;DHT22;53568;52.164;4.472;2023-06-22T00:32:42;20.57;73.31
66670;DHT22;53568;52.164;4.472;2023-06-22T00:35:07;20.61;73.18
66670;DHT22;53568;52.164;4.472;2023-06-22T00:37:34;20.62;73.15
66670;DHT22;53568;52.164;4.472;2023-06-22T00:40:02;20.61;73.39
66670;DHT22;53568;52.164;4.472;2023-06-22T00:42:28;20.62;73.35
66670;DHT22;53568;52.164;4.472;2023-06-22T00:44:54;20.65;73.28
66670;DHT22;53568;52.164;4.472;2023-06-22T00:47:20;20.69;73.08
66670;DHT22;53568;52.164;4.472;2023-06-22T00:49:47;20.71;72.72
66670;DHT22;53568;52.164;4.472;2023-06-22T00:52:14;20.65;72.85
66670;DHT22;53568;52.164;4.472;2023-06-22T00:54:50;20.68;72.63
66670;DHT22;53568;52.164;4.472;2023-06-22T00:57:17;20.68;72.63
66670;DHT22;53568;52.164;4.472;2023-06-22T00:59:45;20.66;72.75
66670;DHT22;53568;52.164;4.472;2023-06-22T01:02:11;20.66;72.89
66670;DHT22;53568;52.164;4.472;2023-06-22T01:04:38;20.63;72.92
66670;DHT22;53568;52.164;4.472;2023-06-22T01:07:28;20.62;72.09
66670;DHT22;53568;52.164;4.472;2023-06-22T01:10:28;20.48;72.91
66670;DHT22;53568;52.164;4.472;2023-06-22T01:13:02;20.53;72.51
66670;DHT22;53568;52.164;4.472;2023-06-22T01:15:43;20.48;72.61
66670;DHT22;53568;52.164;4.472;2023-06-22T01:18:13;20.46;72.65
66670;DHT22;53568;52.164;4.472;2023-06-22T01:20:41;20.56;72.06
66670;DHT22;53568;52.164;4.472;2023-06-22T01:25:57;20.53;72.52
66670;DHT22;53568;52.164;4.472;2023-06-22T01:31:08;20.49;72.96
66670;DHT22;53568;52.164;4.472;2023-06-22T01:33:40;20.51;72.94
66670;DHT22;53568;52.164;4.472;2023-06-22T01:36:07;20.57;72.78
66670;DHT22;53568;52.164;4.472;2023-06-22T01:38:34;20.66;72.23
66670;DHT22;53568;52.164;4.472;2023-06-22T01:41:01;20.68;72.27
66670;DHT22;53568;52.164;4.472;2023-06-22T01:43:28;20.63;72.32
66670;DHT22;53568;52.164;4.472;2023-06-22T01:45:56;20.66;72.18
66670;DHT22;53568;52.164;4.472;2023-06-22T01:48:23;20.59;72.41
66670;DHT22;53568;52.164;4.472;2023-06-22T01:50:51;20.55;72.65
66670;DHT22;53568;52.164;4.472;2023-06-22T01:53:17;20.46;72.75
66670;DHT22;53568;52.164;4.472;2023-06-22T01:55:43;20.53;72.86
66670;DHT22;53568;52.164;4.472;2023-06-22T01:58:08;20.53;72.90
66670;DHT22;53568;52.164;4.472;2023-06-22T02:00:37;20.57;73.05
66670;DHT22;53568;52.164;4.472;2023-06-22T02:03:14;20.62;72.99
66670;DHT22;53568;52.164;4.472;2023-06-22T02:06:19;20.65;73.03
66670;DHT22;53568;52.164;4.472;2023-06-22T02:08:50;20.65;73.08
66670;DHT22;53568;52.164;4.472;2023-06-22T02:11:19;20.63;73.53
66670;DHT22;53568;52.164;4.472;2023-06-22T02:13:46;20.36;74.66
66670;DHT22;53568;52.164;4.472;2023-06-22T02:16:14;20.19;75.19
66670;DHT22;53568;52.164;4.472;2023-06-22T02:18:48;20.24;75.38
66670;DHT22;53568;52.164;4.472;2023-06-22T02:21:21;20.17;75.85
66670;DHT22;53568;52.164;4.472;2023-06-22T02:23:46;20.07;76.24
66670;DHT22;53568;52.164;4.472;2023-06-22T02:26:13;20.14;76.05
66670;DHT22;53568;52.164;4.472;2023-06-22T02:28:38;20.09;76.08
66670;DHT22;53568;52.164;4.472;2023-06-22T02:31:04;20.08;76.19
66670;DHT22;53568;52.164;4.472;2023-06-22T02:33:30;20.08;76.35
66670;DHT22;53568;52.164;4.472;2023-06-22T02:35:56;19.91;76.69
66670;DHT22;53568;52.164;4.472;2023-06-22T02:38:21;19.74;77.14
66670;DHT22;53568;52.164;4.472;2023-06-22T02:40:50;19.60;77.56
66670;DHT22;53568;52.164;4.472;2023-06-22T02:43:15;19.53;77.53
66670;DHT22;53568;52.164;4.472;2023-06-22T02:45:41;19.44;77.84
66670;DHT22;53568;52.164;4.472;2023-06-22T02:48:06;19.23;78.88
66670;DHT22;53568;52.164;4.472;2023-06-22T02:50:32;19.07;79.35
66670;DHT22;53568;52.164;4.472;2023-06-22T02:52:57;18.96;79.71
66670;DHT22;53568;52.164;4.472;2023-06-22T02:55:23;18.86;80.21
66670;DHT22;53568;52.164;4.472;2023-06-22T02:57:49;18.86;80.47
66670;DHT22;53568;52.164;4.472;2023-06-22T03:00:19;18.92;80.24
66670;DHT22;53568;52.164;4.472;2023-06-22T03:02:46;19.03;79.95
66670;DHT22;53568;52.164;4.472;2023-06-22T03:05:12;19.19;79.56
66670;DHT22;53568;52.164;4.472;2023-06-22T03:07:42;19.31;78.62
66670;DHT22;53568;52.164;4.472;2023-06-22T03:10:12;19.33;78.70
66670;DHT22;53568;52.164;4.472;2023-06-22T03:12:38;19.40;78.54
66670;DHT22;53568;52.164;4.472;2023-06-22T03:15:09;19.49;78.19
66670;DHT22;53568;52.164;4.472;2023-06-22T03:17:36;19.57;78.02
66670;DHT22;53568;52.164;4.472;2023-06-22T03:20:03;19.67;77.73
66670;DHT22;53568;52.164;4.472;2023-06-22T03:22:40;19.77;77.21
66670;DHT22;53568;52.164;4.472;2023-06-22T03:25:07;19.82;76.44
66670;DHT22;53568;52.164;4.472;2023-06-22T03:27:38;19.82;75.88
66670;DHT22;53568;52.164;4.472;2023-06-22T03:30:05;19.89;76.04
66670;DHT22;53568;52.164;4.472;2023-06-22T03:32:32;19.74;76.77
66670;DHT22;53568;52.164;4.472;2023-06-22T03:34:58;19.60;77.47
66670;DHT22;53568;52.164;4.472;2023-06-22T03:37:25;19.41;78.09
66670;DHT22;53568;52.164;4.472;2023-06-22T03:39:51;19.20;79.03
66670;DHT22;53568;52.164;4.472;2023-06-22T03:42:17;19.14;79.15
66670;DHT22;53568;52.164;4.472;2023-06-22T03:44:42;19.27;78.86
66670;DHT22;53568;52.164;4.472;2023-06-22T03:47:08;19.41;78.36
66670;DHT22;53568;52.164;4.472;2023-06-22T03:49:34;19.37;78.53
66670;DHT22;53568;52.164;4.472;2023-06-22T03:52:01;19.37;78.84
66670;DHT22;53568;52.164;4.472;2023-06-22T03:54:29;19.40;78.75
66670;DHT22;53568;52.164;4.472;2023-06-22T03:56:55;19.44;78.61
66670;DHT22;53568;52.164;4.472;2023-06-22T03:59:21;19.40;78.59
66670;DHT22;53568;52.164;4.472;2023-06-22T04:01:46;19.50;78.56
66670;DHT22;53568;52.164;4.472;2023-06-22T04:04:12;19.55;78.25
66670;DHT22;53568;52.164;4.472;2023-06-22T04:06:38;19.58;78.08
66670;DHT22;53568;52.164;4.472;2023-06-22T04:09:05;19.38;78.73
66670;DHT22;53568;52.164;4.472;2023-06-22T04:11:31;19.34;79.30
66670;DHT22;53568;52.164;4.472;2023-06-22T04:13:56;19.41;79.26
66670;DHT22;53568;52.164;4.472;2023-06-22T04:16:22;19.53;78.83
66670;DHT22;53568;52.164;4.472;2023-06-22T04:18:47;19.61;78.92
66670;DHT22;53568;52.164;4.472;2023-06-22T04:21:13;19.64;78.49
66670;DHT22;53568;52.164;4.472;2023-06-22T04:23:38;19.82;78.36
66670;DHT22;53568;52.164;4.472;2023-06-22T04:26:04;19.78;78.02
66670;DHT22;53568;52.164;4.472;2023-06-22T04:28:30;19.71;78.50
66670;DHT22;53568;52.164;4.472;2023-06-22T04:31:04;19.78;78.26
66670;DHT22;53568;52.164;4.472;2023-06-22T04:33:30;19.91;78.19
66670;DHT22;53568;52.164;4.472;2023-06-22T04:35:56;20.07;77.71
66670;DHT22;53568;52.164;4.472;2023-06-22T04:38:29;20.14;77.55
66670;DHT22;53568;52.164;4.472;2023-06-22T04:40:58;20.28;77.21
66670;DHT22;53568;52.164;4.472;2023-06-22T04:43:24;20.29;77.04
66670;DHT22;53568;52.164;4.472;2023-06-22T04:45:49;20.42;76.72
66670;DHT22;53568;52.164;4.472;2023-06-22T04:48:17;20.48;76.54
66670;DHT22;53568;52.164;4.472;2023-06-22T04:50:43;20.59;76.01
66670;DHT22;53568;52.164;4.472;2023-06-22T04:53:09;20.71;75.76
66670;DHT22;53568;52.164;4.472;2023-06-22T04:55:38;20.76;75.40
66670;DHT22;53568;52.164;4.472;2023-06-22T04:58:07;20.93;75.15
66670;DHT22;53568;52.164;4.472;2023-06-22T05:00:32;21.06;74.63
66670;DHT22;53568;52.164;4.472;2023-06-22T05:03:01;21.19;74.28
66670;DHT22;53568;52.164;4.472;2023-06-22T05:05:29;21.30;74.14
66670;DHT22;53568;52.164;4.472;2023-06-22T05:07:56;21.51;73.41
66670;DHT22;53568;52.164;4.472;2023-06-22T05:10:25;21.58;72.54
66670;DHT22;53568;52.164;4.472;2023-06-22T05:12:51;21.55;72.46
66670;DHT22;53568;52.164;4.472;2023-06-22T05:15:17;21.55;72.14
66670;DHT22;53568;52.164;4.472;2023-06-22T05:17:44;21.67;71.86
66670;DHT22;53568;52.164;4.472;2023-06-22T05:20:12;21.71;72.02
66670;DHT22;53568;52.164;4.472;2023-06-22T05:22:39;21.82;71.80
66670;DHT22;53568;52.164;4.472;2023-06-22T05:25:07;21.81;71.54
66670;DHT22;53568;52.164;4.472;2023-06-22T05:27:33;21.84;71.66
66670;DHT22;53568;52.164;4.472;2023-06-22T05:29:59;21.91;71.63
66670;DHT22;53568;52.164;4.472;2023-06-22T05:32:24;21.92;71.24
66670;DHT22;53568;52.164;4.472;2023-06-22T05:34:50;21.92;71.09
66670;DHT22;53568;52.164;4.472;2023-06-22T05:37:15;21.85;70.83
66670;DHT22;53568;52.164;4.472;2023-06-22T05:39:41;21.85;71.14
66670;DHT22;53568;52.164;4.472;2023-06-22T05:42:07;21.82;70.80
66670;DHT22;53568;52.164;4.472;2023-06-22T05:44:33;21.73;71.15
66670;DHT22;53568;52.164;4.472;2023-06-22T05:46:59;21.61;71.63
66670;DHT22;53568;52.164;4.472;2023-06-22T05:49:25;21.46;72.40
66670;DHT22;53568;52.164;4.472;2023-06-22T05:51:55;21.37;73.10
66670;DHT22;53568;52.164;4.472;2023-06-22T05:54:22;21.34;73.28
66670;DHT22;53568;52.164;4.472;2023-06-22T05:56:47;21.34;73.21
66670;DHT22;53568;52.164;4.472;2023-06-22T05:59:13;21.14;74.38
66670;DHT22;53568;52.164;4.472;2023-06-22T06:01:39;21.04;75.01
66670;DHT22;53568;52.164;4.472;2023-06-22T06:04:05;21.04;74.91
66670;DHT22;53568;52.164;4.472;2023-06-22T06:06:34;20.82;75.97
66670;DHT22;53568;52.164;4.472;2023-06-22T06:09:05;20.77;76.24
66670;DHT22;53568;52.164;4.472;2023-06-22T06:11:30;20.93;75.92
66670;DHT22;53568;52.164;4.472;2023-06-22T06:13:56;21.07;75.73
66670;DHT22;53568;52.164;4.472;2023-06-22T06:16:22;21.14;75.46
66670;DHT22;53568;52.164;4.472;2023-06-22T06:18:48;21.23;75.34
66670;DHT22;53568;52.164;4.472;2023-06-22T06:21:16;21.39;74.65
66670;DHT22;53568;52.164;4.472;2023-06-22T06:23:41;21.28;74.69
66670;DHT22;53568;52.164;4.472;2023-06-22T06:26:07;21.54;74.27
66670;DHT22;53568;52.164;4.472;2023-06-22T06:28:33;21.70;73.56
66670;DHT22;53568;52.164;4.472;2023-06-22T06:30:59;21.80;73.55
66670;DHT22;53568;52.164;4.472;2023-06-22T06:33:25;21.95;72.41
66670;DHT22;53568;52.164;4.472;2023-06-22T06:35:50;21.97;72.31
66670;DHT22;53568;52.164;4.472;2023-06-22T06:38:16;22.00;71.64
66670;DHT22;53568;52.164;4.472;2023-06-22T06:40:41;22.00;71.67
66670;DHT22;53568;52.164;4.472;2023-06-22T06:43:07;22.01;71.27
66670;DHT22;53568;52.164;4.472;2023-06-22T06:45:32;22.18;70.68
66670;DHT22;53568;52.164;4.472;2023-06-22T06:48:00;22.25;70.35
66670;DHT22;53568;52.164;4.472;2023-06-22T06:50:25;22.22;70.61
66670;DHT22;53568;52.164;4.472;2023-06-22T06:52:51;22.12;69.64
66670;DHT22;53568;52.164;4.472;2023-06-22T06:55:17;22.12;69.74
66670;DHT22;53568;52.164;4.472;2023-06-22T06:57:44;22.26;69.55
66670;DHT22;53568;52.164;4.472;2023-06-22T07:00:14;22.26;67.97
66670;DHT22;53568;52.164;4.472;2023-06-22T07:02:44;22.34;68.24
66670;DHT22;53568;52.164;4.472;2023-06-22T07:05:11;22.44;68.22
66670;DHT22;53568;52.164;4.472;2023-06-22T07:07:37;22.49;68.05
66670;DHT22;53568;52.164;4.472;2023-06-22T07:10:04;22.36;67.70
66670;DHT22;53568;52.164;4.472;2023-06-22T07:12:30;22.32;68.49
66670;DHT22;53568;52.164;4.472;2023-06-22T07:15:07;22.41;69.01
66670;DHT22;53568;52.164;4.472;2023-06-22T07:17:33;22.51;68.67
66670;DHT22;53568;52.164;4.472;2023-06-22T07:20:00;22.36;68.36
66670;DHT22;53568;52.164;4.472;2023-06-22T07:22:26;22.46;66.50
66670;DHT22;53568;52.164;4.472;2023-06-22T07:24:51;22.63;65.53
66670;DHT22;53568;52.164;4.472;2023-06-22T07:27:17;22.77;65.72
66670;DHT22;53568;52.164;4.472;2023-06-22T07:29:44;22.77;67.22
66670;DHT22;53568;52.164;4.472;2023-06-22T07:32:10;22.83;67.50
66670;DHT22;53568;52.164;4.472;2023-06-22T07:34:36;22.70;66.14
66670;DHT22;53568;52.164;4.472;2023-06-22T07:37:01;22.58;66.53
66670;DHT22;53568;52.164;4.472;2023-06-22T07:39:27;22.82;65.59
66670;DHT22;53568;52.164;4.472;2023-06-22T07:41:53;22.68;64.69
66670;DHT22;53568;52.164;4.472;2023-06-22T07:44:19;22.52;62.77
66670;DHT22;53568;52.164;4.472;2023-06-22T07:46:45;22.48;63.94
66670;DHT22;53568;52.164;4.472;2023-06-22T07:49:11;22.41;65.17
66670;DHT22;53568;52.164;4.472;2023-06-22T07:51:37;22.66;64.47
66670;DHT22;53568;52.164;4.472;2023-06-22T07:54:03;22.82;64.33
66670;DHT22;53568;52.164;4.472;2023-06-22T07:56:28;22.86;63.28
66670;DHT22;53568;52.164;4.472;2023-06-22T07:58:54;23.04;61.62
66670;DHT22;53568;52.164;4.472;2023-06-22T08:01:20;22.99;62.60
66670;DHT22;53568;52.164;4.472;2023-06-22T08:03:49;22.96;62.35
66670;DHT22;53568;52.164;4.472;2023-06-22T08:06:15;23.09;61.32
66670;DHT22;53568;52.164;4.472;2023-06-22T08:08:42;23.07;61.49
66670;DHT22;53568;52.164;4.472;2023-06-22T08:11:08;22.92;61.98
66670;DHT22;53568;52.164;4.472;2023-06-22T08:13:34;22.85;62.79
66670;DHT22;53568;52.164;4.472;2023-06-22T08:15:59;22.90;62.46
66670;DHT22;53568;52.164;4.472;2023-06-22T08:18:25;22.95;61.32
66670;DHT22;53568;52.164;4.472;2023-06-22T08:20:50;22.95;61.04
66670;DHT22;53568;52.164;4.472;2023-06-22T08:23:17;23.24;59.94
66670;DHT22;53568;52.164;4.472;2023-06-22T08:25:42;23.34;59.96
66670;DHT22;53568;52.164;4.472;2023-06-22T08:28:08;23.46;60.19
66670;DHT22;53568;52.164;4.472;2023-06-22T08:30:34;23.56;60.14
66670;DHT22;53568;52.164;4.472;2023-06-22T08:32:59;23.75;60.26
66670;DHT22;53568;52.164;4.472;2023-06-22T08:35:25;23.90;58.83
66670;DHT22;53568;52.164;4.472;2023-06-22T08:37:51;24.15;58.25
66670;DHT22;53568;52.164;4.472;2023-06-22T08:40:22;24.10;57.86
66670;DHT22;53568;52.164;4.472;2023-06-22T08:42:49;24.04;58.35
66670;DHT22;53568;52.164;4.472;2023-06-22T08:45:15;23.85;59.19
66670;DHT22;53568;52.164;4.472;2023-06-22T08:47:41;23.87;58.71
66670;DHT22;53568;52.164;4.472;2023-06-22T08:50:12;23.78;58.99
66670;DHT22;53568;52.164;4.472;2023-06-22T08:52:40;23.93;58.98
66670;DHT22;53568;52.164;4.472;2023-06-22T08:55:09;24.12;58.78
66670;DHT22;53568;52.164;4.472;2023-06-22T08:57:36;24.24;57.23
66670;DHT22;53568;52.164;4.472;2023-06-22T09:00:06;24.24;57.26
66670;DHT22;53568;52.164;4.472;2023-06-22T09:02:36;24.25;57.22
66670;DHT22;53568;52.164;4.472;2023-06-22T09:05:03;24.49;57.10
66670;DHT22;53568;52.164;4.472;2023-06-22T09:07:29;24.65;56.78
66670;DHT22;53568;52.164;4.472;2023-06-22T09:09:55;24.83;55.83
66670;DHT22;53568;52.164;4.472;2023-06-22T09:12:21;24.80;55.74
66670;DHT22;53568;52.164;4.472;2023-06-22T09:14:51;24.83;56.22
66670;DHT22;53568;52.164;4.472;2023-06-22T09:17:17;25.00;55.58
66670;DHT22;53568;52.164;4.472;2023-06-22T09:19:42;25.10;54.61
66670;DHT22;53568;52.164;4.472;2023-06-22T09:22:08;25.13;55.40
66670;DHT22;53568;52.164;4.472;2023-06-22T09:24:33;25.02;56.38
66670;DHT22;53568;52.164;4.472;2023-06-22T09:26:59;25.10;55.85
66670;DHT22;53568;52.164;4.472;2023-06-22T09:29:25;25.05;54.01
66670;DHT22;53568;52.164;4.472;2023-06-22T09:31:50;24.96;54.76
66670;DHT22;53568;52.164;4.472;2023-06-22T09:34:18;24.87;56.66
66670;DHT22;53568;52.164;4.472;2023-06-22T09:36:46;24.71;57.80
66670;DHT22;53568;52.164;4.472;2023-06-22T09:39:12;24.86;56.80
66670;DHT22;53568;52.164;4.472;2023-06-22T09:41:37;24.79;57.52
66670;DHT22;53568;52.164;4.472;2023-06-22T09:44:03;24.83;57.19
66670;DHT22;53568;52.164;4.472;2023-06-22T09:46:30;24.93;57.47
66670;DHT22;53568;52.164;4.472;2023-06-22T09:48:55;25.06;57.76
66670;DHT22;53568;52.164;4.472;2023-06-22T09:51:22;24.96;58.34
66670;DHT22;53568;52.164;4.472;2023-06-22T09:53:49;24.79;59.12
66670;DHT22;53568;52.164;4.472;2023-06-22T09:56:16;24.62;59.55
66670;DHT22;53568;52.164;4.472;2023-06-22T09:58:45;24.64;59.96
66670;DHT22;53568;52.164;4.472;2023-06-22T10:01:12;24.73;59.58
66670;DHT22;53568;52.164;4.472;2023-06-22T10:03:40;24.69;57.26
66670;DHT22;53568;52.164;4.472;2023-06-22T10:06:07;24.61;58.67
66670;DHT22;53568;52.164;4.472;2023-06-22T10:08:34;24.39;59.80
66670;DHT22;53568;52.164;4.472;2023-06-22T10:10:59;24.51;57.32
66670;DHT22;53568;52.164;4.472;2023-06-22T10:13:25;24.45;56.92
66670;DHT22;53568;52.164;4.472;2023-06-22T10:15:50;24.36;58.01
66670;DHT22;53568;52.164;4.472;2023-06-22T10:18:20;24.59;57.96
66670;DHT22;53568;52.164;4.472;2023-06-22T10:20:50;24.59;55.87
66670;DHT22;53568;52.164;4.472;2023-06-22T10:23:17;24.55;56.82
66670;DHT22;53568;52.164;4.472;2023-06-22T10:25:43;24.79;56.39
66670;DHT22;53568;52.164;4.472;2023-06-22T10:28:08;24.95;56.33
66670;DHT22;53568;52.164;4.472;2023-06-22T10:30:34;25.22;55.61
66670;DHT22;53568;52.164;4.472;2023-06-22T10:32:59;25.31;54.38
66670;DHT22;53568;52.164;4.472;2023-06-22T10:35:25;25.26;55.08
66670;DHT22;53568;52.164;4.472;2023-06-22T10:37:50;25.13;55.69
66670;DHT22;53568;52.164;4.472;2023-06-22T10:40:17;25.15;55.31
66670;DHT22;53568;52.164;4.472;2023-06-22T10:42:44;24.95;54.57
66670;DHT22;53568;52.164;4.472;2023-06-22T10:45:10;24.97;54.40
66670;DHT22;53568;52.164;4.472;2023-06-22T10:47:36;25.02;55.18
66670;DHT22;53568;52.164;4.472;2023-06-22T10:50:02;24.83;56.26
66670;DHT22;53568;52.164;4.472;2023-06-22T10:52:29;25.02;55.95
66670;DHT22;53568;52.164;4.472;2023-06-22T10:54:55;25.02;56.64
66670;DHT22;53568;52.164;4.472;2023-06-22T10:57:22;24.95;56.68
66670;DHT22;53568;52.164;4.472;2023-06-22T10:59:47;24.79;57.21
66670;DHT22;53568;52.164;4.472;2023-06-22T11:02:13;24.96;57.73
66670;DHT22;53568;52.164;4.472;2023-06-22T11:04:39;24.93;57.93
66670;DHT22;53568;52.164;4.472;2023-06-22T11:07:04;24.65;59.07
66670;DHT22;53568;52.164;4.472;2023-06-22T11:09:31;24.80;58.86
66670;DHT22;53568;52.164;4.472;2023-06-22T11:11:57;24.79;58.24
66670;DHT22;53568;52.164;4.472;2023-06-22T11:14:24;24.87;57.26
66670;DHT22;53568;52.164;4.472;2023-06-22T11:16:50;24.92;56.89
66670;DHT22;53568;52.164;4.472;2023-06-22T11:19:15;24.90;57.68
66670;DHT22;53568;52.164;4.472;2023-06-22T11:21:41;24.95;57.80
66670;DHT22;53568;52.164;4.472;2023-06-22T11:24:07;24.92;58.94
66670;DHT22;53568;52.164;4.472;2023-06-22T11:26:33;25.03;58.59
66670;DHT22;53568;52.164;4.472;2023-06-22T11:28:59;25.06;56.95
66670;DHT22;53568;52.164;4.472;2023-06-22T11:31:25;25.06;55.31
66670;DHT22;53568;52.164;4.472;2023-06-22T11:33:50;25.03;56.07
66670;DHT22;53568;52.164;4.472;2023-06-22T11:36:16;24.95;56.92
66670;DHT22;53568;52.164;4.472;2023-06-22T11:38:42;24.92;57.53
66670;DHT22;53568;52.164;4.472;2023-06-22T11:41:09;25.16;56.83
66670;DHT22;53568;52.164;4.472;2023-06-22T11:43:36;25.12;56.48
66670;DHT22;53568;52.164;4.472;2023-06-22T11:46:06;25.16;56.30
66670;DHT22;53568;52.164;4.472;2023-06-22T11:48:31;24.90;57.06
66670;DHT22;53568;52.164;4.472;2023-06-22T11:50:58;24.72;58.32
66670;DHT22;53568;52.164;4.472;2023-06-22T11:53:25;24.68;57.91
66670;DHT22;53568;52.164;4.472;2023-06-22T11:55:51;24.56;57.81
66670;DHT22;53568;52.164;4.472;2023-06-22T11:58:19;24.68;58.11
66670;DHT22;53568;52.164;4.472;2023-06-22T12:00:44;24.87;58.38
66670;DHT22;53568;52.164;4.472;2023-06-22T12:03:10;24.82;58.25
66670;DHT22;53568;52.164;4.472;2023-06-22T12:05:37;24.97;58.57
66670;DHT22;53568;52.164;4.472;2023-06-22T12:08:03;24.99;58.92
66670;DHT22;53568;52.164;4.472;2023-06-22T12:10:29;24.80;59.91
66670;DHT22;53568;52.164;4.472;2023-06-22T12:12:54;24.58;60.93
66670;DHT22;53568;52.164;4.472;2023-06-22T12:15:20;24.52;61.52
66670;DHT22;53568;52.164;4.472;2023-06-22T12:17:45;24.42;62.36
66670;DHT22;53568;52.164;4.472;2023-06-22T12:20:13;24.48;62.66
66670;DHT22;53568;52.164;4.472;2023-06-22T12:22:40;24.52;62.96
66670;DHT22;53568;52.164;4.472;2023-06-22T12:25:07;24.58;63.00
66670;DHT22;53568;52.164;4.472;2023-06-22T12:27:33;24.48;63.50
66670;DHT22;53568;52.164;4.472;2023-06-22T12:29:58;24.59;63.55
66670;DHT22;53568;52.164;4.472;2023-06-22T12:32:24;24.54;63.49
66670;DHT22;53568;52.164;4.472;2023-06-22T12:34:51;24.56;63.63
66670;DHT22;53568;52.164;4.472;2023-06-22T12:37:19;24.61;63.74
66670;DHT22;53568;52.164;4.472;2023-06-22T12:39:44;24.72;63.49
66670;DHT22;53568;52.164;4.472;2023-06-22T12:42:10;24.68;63.80
66670;DHT22;53568;52.164;4.472;2023-06-22T12:44:39;24.56;63.69
66670;DHT22;53568;52.164;4.472;2023-06-22T12:47:06;24.48;64.11
66670;DHT22;53568;52.164;4.472;2023-06-22T12:49:32;24.51;64.35
66670;DHT22;53568;52.164;4.472;2023-06-22T12:51:57;24.35;64.60
66670;DHT22;53568;52.164;4.472;2023-06-22T12:54:24;24.51;64.08
66670;DHT22;53568;52.164;4.472;2023-06-22T12:56:50;24.55;63.91
66670;DHT22;53568;52.164;4.472;2023-06-22T12:59:16;24.48;63.57
66670;DHT22;53568;52.164;4.472;2023-06-22T13:01:43;24.39;63.34
66670;DHT22;53568;52.164;4.472;2023-06-22T13:04:12;24.48;63.38
66670;DHT22;53568;52.164;4.472;2023-06-22T13:06:43;24.55;63.67
66670;DHT22;53568;52.164;4.472;2023-06-22T13:09:13;24.25;64.68
66670;DHT22;53568;52.164;4.472;2023-06-22T13:11:39;24.18;65.12
66670;DHT22;53568;52.164;4.472;2023-06-22T13:14:04;24.31;64.99
66670;DHT22;53568;52.164;4.472;2023-06-22T13:16:30;24.34;64.61
66670;DHT22;53568;52.164;4.472;2023-06-22T13:18:56;24.47;64.03
66670;DHT22;53568;52.164;4.472;2023-06-22T13:21:21;24.35;63.83
66670;DHT22;53568;52.164;4.472;2023-06-22T13:23:47;24.28;64.34
66670;DHT22;53568;52.164;4.472;2023-06-22T13:26:13;24.24;64.70
66670;DHT22;53568;52.164;4.472;2023-06-22T13:28:38;24.12;64.83
66670;DHT22;53568;52.164;4.472;2023-06-22T13:31:04;23.97;65.27
66670;DHT22;53568;52.164;4.472;2023-06-22T13:33:29;24.15;64.85
66670;DHT22;53568;52.164;4.472;2023-06-22T13:35:55;24.15;64.84
66670;DHT22;53568;52.164;4.472;2023-06-22T13:38:21;24.26;64.47
66670;DHT22;53568;52.164;4.472;2023-06-22T13:40:48;24.29;64.38
66670;DHT22;53568;52.164;4.472;2023-06-22T13:43:14;24.14;64.60
66670;DHT22;53568;52.164;4.472;2023-06-22T13:45:40;24.24;64.45
66670;DHT22;53568;52.164;4.472;2023-06-22T13:48:06;24.22;63.70
66670;DHT22;53568;52.164;4.472;2023-06-22T13:50:31;24.35;63.26
66670;DHT22;53568;52.164;4.472;2023-06-22T13:52:57;24.24;63.24
66670;DHT22;53568;52.164;4.472;2023-06-22T13:55:22;24.22;63.16
66670;DHT22;53568;52.164;4.472;2023-06-22T13:57:48;24.20;63.04
66670;DHT22;53568;52.164;4.472;2023-06-22T14:00:14;24.24;62.86
66670;DHT22;53568;52.164;4.472;2023-06-22T14:02:40;24.22;63.19
66670;DHT22;53568;52.164;4.472;2023-06-22T14:05:07;24.26;63.20
66670;DHT22;53568;52.164;4.472;2023-06-22T14:07:32;24.20;63.64
66670;DHT22;53568;52.164;4.472;2023-06-22T14:09:59;24.29;63.70
66670;DHT22;53568;52.164;4.472;2023-06-22T14:12:25;24.18;63.57
66670;DHT22;53568;52.164;4.472;2023-06-22T14:14:50;24.04;64.20
66670;DHT22;53568;52.164;4.472;2023-06-22T14:17:16;23.94;63.77
66670;DHT22;53568;52.164;4.472;2023-06-22T14:19:41;23.91;63.85
66670;DHT22;53568;52.164;4.472;2023-06-22T14:22:07;24.02;63.96
66670;DHT22;53568;52.164;4.472;2023-06-22T14:24:32;24.05;63.69
66670;DHT22;53568;52.164;4.472;2023-06-22T14:26:59;24.08;63.88
66670;DHT22;53568;52.164;4.472;2023-06-22T14:29:27;24.02;64.15
66670;DHT22;53568;52.164;4.472;2023-06-22T14:31:53;24.05;64.22
66670;DHT22;53568;52.164;4.472;2023-06-22T14:34:19;24.02;64.20
66670;DHT22;53568;52.164;4.472;2023-06-22T14:36:44;23.87;64.26
66670;DHT22;53568;52.164;4.472;2023-06-22T14:39:10;23.82;64.40
66670;DHT22;53568;52.164;4.472;2023-06-22T14:41:35;23.90;64.17
66670;DHT22;53568;52.164;4.472;2023-06-22T14:44:01;23.77;64.08
66670;DHT22;53568;52.164;4.472;2023-06-22T14:46:28;23.80;63.63
66670;DHT22;53568;52.164;4.472;2023-06-22T14:48:53;23.87;63.45
66670;DHT22;53568;52.164;4.472;2023-06-22T14:51:19;23.90;62.18
66670;DHT22;53568;52.164;4.472;2023-06-22T14:53:46;23.97;61.88
66670;DHT22;53568;52.164;4.472;2023-06-22T14:56:12;23.81;61.97
66670;DHT22;53568;52.164;4.472;2023-06-22T14:58:40;23.84;61.97
66670;DHT22;53568;52.164;4.472;2023-06-22T15:01:05;23.90;61.70
66670;DHT22;53568;52.164;4.472;2023-06-22T15:03:34;23.90;61.64
66670;DHT22;53568;52.164;4.472;2023-06-22T15:06:02;23.74;62.10
66670;DHT22;53568;52.164;4.472;2023-06-22T15:08:28;23.93;62.04
66670;DHT22;53568;52.164;4.472;2023-06-22T15:10:54;23.97;62.13
66670;DHT22;53568;52.164;4.472;2023-06-22T15:13:21;23.88;62.87
66670;DHT22;53568;52.164;4.472;2023-06-22T15:15:49;23.96;62.95
66670;DHT22;53568;52.164;4.472;2023-06-22T15:18:15;23.78;62.62
66670;DHT22;53568;52.164;4.472;2023-06-22T15:20:41;23.63;62.73
66670;DHT22;53568;52.164;4.472;2023-06-22T15:23:10;23.75;62.70
66670;DHT22;53568;52.164;4.472;2023-06-22T15:25:36;23.81;62.43
66670;DHT22;53568;52.164;4.472;2023-06-22T15:28:01;23.70;63.95
66670;DHT22;53568;52.164;4.472;2023-06-22T15:30:28;23.47;65.82
66670;DHT22;53568;52.164;4.472;2023-06-22T15:32:53;23.44;66.63